Mount Oliver, Pennsylvania
Current Conditions -  °F | °C
As of 3:53 PM on Monday 24 Nov 2014 (Local Time) from KAGC Reporting Station
Broken Clouds Broken Clouds  
Wind Chill: 65°   Ceiling: 8000
Heat Index: 65°   Visibility: 10mi
Dew Point: 39°   Wind: 22mph
Humidity: 39%   Direction: 240°WSW
Pressure: 29.5"   Gusts: 40mph
Location:  40.4064°N, 79.9829°W
Report Text: KAGC 242053Z 24019G35KT 10SM FEW070 BKN080 18/04 A2950 RMK AO2 PK WND 21050/1955 SLP989 60000 T01830039 53026
Loading
Personal Weather Stations






























Interactive Weather Map New forecast layout! Learn more

10-Day Weather Forecast

Advertisements
Track Severe Weather on mobile